Llanfyrnach, United Kingdom
Current Conditions -  °F | °C
As of 11:50 PM on Monday 24 Nov 2014 (Local Time) from EGOP Reporting Station
Broken Clouds Broken Clouds  
Wind Chill: 32°   Ceiling: 3600
Heat Index: 37°   Visibility: 6mi
Dew Point: 37°   Wind: 7mph
Humidity: 100%   Direction: 70°ENE
Pressure: 30.3"   Gusts: NA
Location:  51.99°N, 4.5°W
Report Text: EGOP 242350Z AUTO 07006KT 9999 // BKN036/// 03/03 Q1026
Loading
Personal Weather Stations






























Interactive Weather Map New forecast layout! Learn more

10-Day Weather Forecast

Advertisements
Track Severe Weather on mobile